createdAt,value
2023-01-07T00:01:43.856Z,0.73
2023-01-07T00:04:29.253Z,0.80
2023-01-07T00:07:14.508Z,0.70
2023-01-07T00:09:59.843Z,0.73
2023-01-07T00:12:45.141Z,0.80
2023-01-07T00:15:30.495Z,0.87
2023-01-07T00:18:15.834Z,0.90
2023-01-07T00:21:03.805Z,0.80
2023-01-07T00:23:49.451Z,0.87
2023-01-07T00:26:37.870Z,0.80
2023-01-07T00:29:23.557Z,0.77
2023-01-07T00:32:08.803Z,0.90
2023-01-07T00:34:54.054Z,0.80
2023-01-07T00:37:51.272Z,0.87
2023-01-07T00:40:37.312Z,0.83
2023-01-07T00:43:22.994Z,0.60
2023-01-07T00:46:09.786Z,0.80
2023-01-07T00:48:55.635Z,0.90
2023-01-07T00:51:41.127Z,0.73
2023-01-07T00:54:26.582Z,0.63
2023-01-07T00:57:14.904Z,0.70
2023-01-07T01:00:00.740Z,0.90
2023-01-07T01:02:47.364Z,0.60
2023-01-07T01:05:32.868Z,0.90
2023-01-07T01:08:18.611Z,0.63
2023-01-07T01:11:08.696Z,0.80
2023-01-07T01:13:54.525Z,0.80
2023-01-07T01:16:40.065Z,0.90
2023-01-07T01:19:25.162Z,0.83
2023-01-07T01:22:10.321Z,0.57
2023-01-07T01:24:55.495Z,0.77
2023-01-07T01:27:40.924Z,0.80
2023-01-07T01:30:26.357Z,0.50
2023-01-07T01:33:12.140Z,0.50
2023-01-07T01:35:57.758Z,0.80
2023-01-07T01:38:43.170Z,0.70
2023-01-07T01:41:29.023Z,0.70
2023-01-07T01:44:39.470Z,0.60
2023-01-07T01:47:58.656Z,0.60
2023-01-07T01:50:47.546Z,0.80
2023-01-07T01:53:35.664Z,0.60
2023-01-07T01:56:27.777Z,0.80
2023-01-07T01:59:18.829Z,0.80
2023-01-07T02:02:06.612Z,0.60
2023-01-07T02:04:55.047Z,0.60
2023-01-07T02:07:40.554Z,0.70
2023-01-07T02:10:28.571Z,0.60
2023-01-07T02:13:51.782Z,0.63
2023-01-07T02:16:58.012Z,0.60
2023-01-07T02:19:54.998Z,0.87
2023-01-07T02:22:58.874Z,0.70
2023-01-07T02:26:21.521Z,0.57
2023-01-07T02:29:39.310Z,0.60
2023-01-07T02:32:53.961Z,0.63
2023-01-07T02:35:58.137Z,0.80
2023-01-07T02:38:46.390Z,0.50
2023-01-07T02:41:47.998Z,0.60
2023-01-07T02:44:42.403Z,0.70
2023-01-07T02:47:41.658Z,0.60
2023-01-07T02:50:27.307Z,0.60
2023-01-07T02:53:17.283Z,0.70
2023-01-07T02:56:40.607Z,0.60
2023-01-07T02:59:49.362Z,0.60
2023-01-07T03:02:44.482Z,0.70
2023-01-07T03:05:48.091Z,0.67
2023-01-07T03:09:02.010Z,0.60
2023-01-07T03:12:00.814Z,0.57
2023-01-07T03:15:29.141Z,0.50
2023-01-07T03:18:23.769Z,0.60
2023-01-07T03:21:14.874Z,0.50
2023-01-07T03:24:02.007Z,0.50
2023-01-07T03:26:50.882Z,0.50
2023-01-07T03:29:36.815Z,0.50
2023-01-07T03:32:32.450Z,0.53
2023-01-07T03:35:20.774Z,0.60
2023-01-07T03:38:07.599Z,0.70
2023-01-07T03:40:54.935Z,0.70
2023-01-07T03:43:40.206Z,0.70
2023-01-07T03:46:25.514Z,0.60
2023-01-07T03:49:10.845Z,0.80
2023-01-07T03:51:56.108Z,0.70
2023-01-07T03:54:41.866Z,0.57
2023-01-07T03:57:29.181Z,0.60
2023-01-07T04:00:16.153Z,0.60
2023-01-07T04:03:08.112Z,0.50
2023-01-07T04:05:58.218Z,0.60
2023-01-07T04:08:43.984Z,0.70
2023-01-07T04:11:29.938Z,0.60
2023-01-07T04:14:15.817Z,0.70
2023-01-07T04:17:01.587Z,0.53
2023-01-07T04:19:46.931Z,0.60
2023-01-07T04:22:33.309Z,0.63
2023-01-07T04:25:18.666Z,0.60
2023-01-07T04:28:04.537Z,0.50
2023-01-07T04:30:50.272Z,0.60
2023-01-07T04:33:36.532Z,0.53
2023-01-07T04:36:21.761Z,0.40
2023-01-07T04:39:07.579Z,0.70
2023-01-07T04:41:53.334Z,0.63
2023-01-07T04:44:38.689Z,0.43
2023-01-07T04:47:24.600Z,0.60
2023-01-07T04:50:10.531Z,0.60
2023-01-07T04:52:56.254Z,0.37
2023-01-07T04:55:41.930Z,0.53
2023-01-07T04:58:27.704Z,0.43
2023-01-07T05:01:14.814Z,0.47
2023-01-07T05:04:01.476Z,0.40
2023-01-07T05:06:47.656Z,0.40
2023-01-07T05:09:33.973Z,0.50
2023-01-07T05:12:19.143Z,0.60
2023-01-07T05:15:06.611Z,0.60
2023-01-07T05:17:54.269Z,0.40
2023-01-07T05:20:42.748Z,0.40
2023-01-07T05:23:28.695Z,0.60
2023-01-07T05:26:17.057Z,0.50
2023-01-07T05:29:02.546Z,0.60
2023-01-07T05:31:47.859Z,0.50
2023-01-07T05:34:33.811Z,0.43
2023-01-07T05:37:18.924Z,0.47
2023-01-07T05:40:05.178Z,0.47
2023-01-07T05:42:50.542Z,0.40
2023-01-07T05:45:35.885Z,0.70
2023-01-07T05:48:21.197Z,0.40
2023-01-07T05:51:07.436Z,0.40
2023-01-07T05:53:52.739Z,0.50
2023-01-07T05:56:38.113Z,0.40
2023-01-07T05:59:23.926Z,0.50
2023-01-07T06:02:09.508Z,0.60
2023-01-07T06:04:54.956Z,0.60
2023-01-07T06:07:40.616Z,0.50
2023-01-07T06:10:26.258Z,0.57
2023-01-07T06:13:11.563Z,0.40
2023-01-07T06:16:05.485Z,0.53
2023-01-07T06:18:51.680Z,0.50
2023-01-07T06:21:37.054Z,0.50
2023-01-07T06:24:22.394Z,0.50
2023-01-07T06:27:10.067Z,0.53
2023-01-07T06:29:55.828Z,0.50
2023-01-07T06:32:43.066Z,0.87
2023-01-07T06:35:28.465Z,6.30
2023-01-07T06:38:13.993Z,9.70
2023-01-07T06:40:59.633Z,11.63
2023-01-07T06:43:44.897Z,12.73
2023-01-07T06:46:30.418Z,10.83
2023-01-07T06:49:15.761Z,9.70
2023-01-07T06:52:15.106Z,9.83
2023-01-07T06:55:00.762Z,9.87
2023-01-07T06:57:46.081Z,9.27
2023-01-07T07:00:31.458Z,6.97
2023-01-07T07:03:16.891Z,5.70
2023-01-07T07:06:02.248Z,4.97
2023-01-07T07:08:47.553Z,4.73
2023-01-07T07:11:32.728Z,4.70
2023-01-07T07:14:18.082Z,4.63
2023-01-07T07:17:04.162Z,4.57
2023-01-07T07:19:49.800Z,4.93
2023-01-07T07:22:34.994Z,5.37
2023-01-07T07:25:21.343Z,5.67
2023-01-07T07:28:06.833Z,5.73
2023-01-07T07:30:52.264Z,5.17
2023-01-07T07:33:38.087Z,5.23
2023-01-07T07:36:23.690Z,5.17
2023-01-07T07:39:09.311Z,4.90
2023-01-07T07:41:55.655Z,5.30
2023-01-07T07:44:41.370Z,4.73
2023-01-07T07:47:26.788Z,5.27
2023-01-07T07:50:12.268Z,4.97
2023-01-07T07:52:57.644Z,4.40
2023-01-07T07:55:42.923Z,4.40
2023-01-07T07:58:28.140Z,4.77
2023-01-07T08:01:13.612Z,4.77
2023-01-07T08:03:58.859Z,4.60
2023-01-07T08:06:46.142Z,5.30
2023-01-07T08:09:32.013Z,5.17
2023-01-07T08:12:17.261Z,5.20
2023-01-07T08:15:02.966Z,6.00
2023-01-07T08:18:01.254Z,5.23
2023-01-07T08:20:48.844Z,5.60
2023-01-07T08:23:37.229Z,4.67
2023-01-07T08:26:22.731Z,4.17
2023-01-07T08:29:08.941Z,4.80
2023-01-07T08:31:54.725Z,4.60
2023-01-07T08:34:40.123Z,4.47
2023-01-07T08:37:25.410Z,4.77
2023-01-07T08:40:13.138Z,4.83
2023-01-07T08:43:03.682Z,5.53
2023-01-07T08:45:49.434Z,5.33
2023-01-07T08:48:36.124Z,5.83
2023-01-07T08:51:22.116Z,5.20
2023-01-07T08:54:07.389Z,5.00
2023-01-07T08:56:52.954Z,6.07
2023-01-07T08:59:40.701Z,5.03
2023-01-07T09:02:26.203Z,5.17
2023-01-07T09:05:12.385Z,6.77
2023-01-07T09:07:57.802Z,5.40
2023-01-07T09:10:43.323Z,5.27
2023-01-07T09:13:28.800Z,5.10
2023-01-07T09:16:14.737Z,5.07
2023-01-07T09:19:00.101Z,5.07
2023-01-07T09:21:45.464Z,5.57
2023-01-07T09:24:30.911Z,5.70
2023-01-07T09:27:17.258Z,5.23
2023-01-07T09:30:04.031Z,5.57
2023-01-07T09:32:49.957Z,5.77
2023-01-07T09:35:35.465Z,6.27
2023-01-07T09:38:20.793Z,5.33
2023-01-07T09:41:28.239Z,5.67
2023-01-07T09:44:30.037Z,4.83
2023-01-07T09:47:19.447Z,5.10
2023-01-07T09:50:25.082Z,5.03
2023-01-07T09:53:16.520Z,4.97
2023-01-07T09:56:10.805Z,4.73
2023-01-07T09:58:59.762Z,5.37
2023-01-07T10:02:15.268Z,4.50
2023-01-07T10:05:34.341Z,4.90
2023-01-07T10:08:35.048Z,4.20
2023-01-07T10:11:26.769Z,4.60
2023-01-07T10:14:30.703Z,4.33
2023-01-07T10:17:44.322Z,4.67
2023-01-07T10:23:35.933Z,5.03
2023-01-07T10:26:34.546Z,5.00
2023-01-07T10:29:29.032Z,4.90
2023-01-07T10:32:17.197Z,4.77
2023-01-07T10:35:03.797Z,4.40
2023-01-07T10:37:49.213Z,3.93
2023-01-07T10:40:43.274Z,3.77
2023-01-07T10:43:37.733Z,4.30
2023-01-07T10:46:38.638Z,4.40
2023-01-07T10:49:44.506Z,4.57
2023-01-07T10:52:52.542Z,4.20
2023-01-07T10:56:10.445Z,4.33
2023-01-07T10:58:56.246Z,4.33
2023-01-07T11:01:45.998Z,3.13
2023-01-07T11:04:31.805Z,3.50
2023-01-07T11:07:53.878Z,3.77
2023-01-07T11:10:39.868Z,4.53
2023-01-07T11:13:30.477Z,3.50
2023-01-07T11:16:27.803Z,3.13
2023-01-07T11:19:14.715Z,2.40
2023-01-07T11:22:00.090Z,2.90
2023-01-07T11:24:45.504Z,2.10
2023-01-07T11:27:34.374Z,2.57
2023-01-07T11:30:29.048Z,2.13
2023-01-07T11:34:02.621Z,2.47
2023-01-07T11:36:42.731Z,2.30
2023-01-07T11:39:31.011Z,1.93
2023-01-07T11:42:37.392Z,1.90
2023-01-07T11:45:28.741Z,2.90
2023-01-07T11:48:23.304Z,2.70
2023-01-07T11:51:11.218Z,2.40
2023-01-07T11:59:47.578Z,2.93
2023-01-07T12:02:32.437Z,2.40
2023-01-07T12:05:26.323Z,2.23
2023-01-07T12:08:22.353Z,2.43
2023-01-07T12:11:10.655Z,2.50
2023-01-07T12:13:55.164Z,2.57
2023-01-07T12:19:41.573Z,2.37
2023-01-07T12:22:32.824Z,2.50
2023-01-07T12:25:23.766Z,2.43
2023-01-07T12:28:16.775Z,2.50
2023-01-07T12:31:21.701Z,2.03
2023-01-07T12:34:37.242Z,2.00
2023-01-07T12:37:36.072Z,1.80
2023-01-07T12:40:50.134Z,2.40
2023-01-07T12:43:57.772Z,2.30
2023-01-07T12:46:51.656Z,2.07
2023-01-07T12:53:21.600Z,2.23
2023-01-07T12:56:17.043Z,1.97
2023-01-07T12:59:47.055Z,2.27
2023-01-07T13:02:48.434Z,2.43
2023-01-07T13:05:52.129Z,2.20
2023-01-07T13:12:01.707Z,2.13
2023-01-07T13:17:40.638Z,2.00
2023-01-07T13:20:41.405Z,1.90
2023-01-07T13:23:51.871Z,2.10
2023-01-07T13:27:01.825Z,1.83
2023-01-07T13:30:16.922Z,2.17
2023-01-07T13:33:15.862Z,2.10
2023-01-07T13:36:08.640Z,2.10
2023-01-07T13:39:06.335Z,1.92
2023-01-07T13:42:22.391Z,2.07
2023-01-07T13:45:13.919Z,2.13
2023-01-07T13:48:03.312Z,2.40
2023-01-07T13:51:01.793Z,2.43
2023-01-07T13:53:47.961Z,2.30
2023-01-07T13:56:36.138Z,2.17
2023-01-07T13:59:30.650Z,2.20
2023-01-07T14:02:21.975Z,2.03
2023-01-07T14:05:23.599Z,2.33
2023-01-07T14:08:10.068Z,1.77
2023-01-07T14:10:55.769Z,2.13
2023-01-07T14:14:20.486Z,2.23
2023-01-07T14:17:43.469Z,1.90
2023-01-07T14:20:39.865Z,1.80
2023-01-07T14:23:40.841Z,1.83
2023-01-07T14:26:40.719Z,2.30
2023-01-07T14:29:41.613Z,1.60
2023-01-07T14:32:37.039Z,2.00
2023-01-07T14:35:31.681Z,2.17
2023-01-07T14:38:29.488Z,1.93
2023-01-07T14:41:17.942Z,2.00
2023-01-07T14:44:24.848Z,1.93
2023-01-07T14:47:12.105Z,1.70
2023-01-07T14:50:35.302Z,1.70
2023-01-07T14:53:53.244Z,1.70
2023-01-07T14:57:03.306Z,2.13
2023-01-07T15:00:13.956Z,1.70
2023-01-07T15:03:15.042Z,1.63
2023-01-07T15:06:19.194Z,1.60
2023-01-07T15:09:39.052Z,2.00
2023-01-07T15:12:49.637Z,2.00
2023-01-07T15:15:56.640Z,2.00
2023-01-07T15:18:49.824Z,2.10
2023-01-07T15:22:01.854Z,2.20
2023-01-07T15:25:10.456Z,1.60
2023-01-07T15:28:12.189Z,1.90
2023-01-07T15:32:05.725Z,1.63
2023-01-07T15:34:51.409Z,1.95
2023-01-07T15:37:36.848Z,2.10
2023-01-07T15:40:25.499Z,1.60
2023-01-07T15:43:23.370Z,2.00
2023-01-07T15:46:08.797Z,1.87
2023-01-07T15:49:28.024Z,1.80
2023-01-07T15:52:23.870Z,2.03
2023-01-07T15:55:26.057Z,1.83
2023-01-07T15:58:18.592Z,1.80
2023-01-07T16:01:05.207Z,1.80
2023-01-07T16:03:55.199Z,1.60
2023-01-07T16:06:46.160Z,1.53
2023-01-07T16:09:34.142Z,1.40
2023-01-07T16:12:26.094Z,1.53
2023-01-07T16:15:26.947Z,1.60
2023-01-07T16:18:14.251Z,2.10
2023-01-07T16:21:12.270Z,1.37
2023-01-07T16:23:57.926Z,1.60
2023-01-07T16:26:50.942Z,2.00
2023-01-07T16:29:57.330Z,1.65
2023-01-07T16:32:44.386Z,1.53
2023-01-07T16:35:36.565Z,1.77
2023-01-07T16:38:22.500Z,1.50
2023-01-07T16:41:19.047Z,1.47
2023-01-07T16:44:04.652Z,1.37
2023-01-07T16:47:06.573Z,1.40
2023-01-07T16:49:54.018Z,2.63
2023-01-07T16:52:55.696Z,2.50
2023-01-07T16:55:53.404Z,2.20
2023-01-07T16:58:47.165Z,2.13
2023-01-07T17:01:34.915Z,2.10
2023-01-07T17:04:42.979Z,2.17
2023-01-07T17:07:29.029Z,1.80
2023-01-07T17:10:22.315Z,2.10
2023-01-07T17:13:32.743Z,1.97
2023-01-07T17:16:30.293Z,1.83
2023-01-07T17:19:25.547Z,2.60
2023-01-07T17:22:33.341Z,3.40
2023-01-07T17:25:24.812Z,4.20
2023-01-07T17:28:19.251Z,3.87
2023-01-07T17:31:07.141Z,5.10
2023-01-07T17:33:53.789Z,6.53
2023-01-07T17:36:39.562Z,5.20
2023-01-07T17:39:25.187Z,4.77
2023-01-07T17:42:40.936Z,5.50
2023-01-07T17:45:27.362Z,5.27
2023-01-07T17:48:13.672Z,4.43
2023-01-07T17:51:01.383Z,4.60
2023-01-07T17:53:49.089Z,4.50
2023-01-07T17:56:34.491Z,4.27
2023-01-07T17:59:22.809Z,3.73
2023-01-07T18:02:19.035Z,4.20
2023-01-07T18:05:05.431Z,4.17
2023-01-07T18:07:52.280Z,3.80
2023-01-07T18:10:56.116Z,4.60
2023-01-07T18:13:41.966Z,6.17
2023-01-07T18:16:27.628Z,6.37
2023-01-07T18:19:14.896Z,6.17
2023-01-07T18:22:00.147Z,5.70
2023-01-07T18:24:45.440Z,6.57
2023-01-07T18:27:30.769Z,5.77
2023-01-07T18:30:18.652Z,5.00
2023-01-07T18:33:05.814Z,5.47
2023-01-07T18:35:51.550Z,5.20
2023-01-07T18:38:37.019Z,4.63
2023-01-07T18:41:22.555Z,4.33
2023-01-07T18:44:13.244Z,5.03
2023-01-07T18:46:58.956Z,4.93
2023-01-07T18:49:44.508Z,5.60
2023-01-07T18:52:31.104Z,4.80
2023-01-07T18:55:18.068Z,5.03
2023-01-07T18:58:03.733Z,4.57
2023-01-07T19:00:49.601Z,4.60
2023-01-07T19:03:35.646Z,4.37
2023-01-07T19:06:21.428Z,4.30
2023-01-07T19:09:07.057Z,3.50
2023-01-07T19:11:56.256Z,4.63
2023-01-07T19:14:41.736Z,4.47
2023-01-07T19:17:28.262Z,4.00
2023-01-07T19:20:15.377Z,4.37
2023-01-07T19:23:01.306Z,4.07
2023-01-07T19:26:01.622Z,4.30
2023-01-07T19:28:47.771Z,4.30
2023-01-07T19:31:34.271Z,5.37
2023-01-07T19:34:19.968Z,5.60
2023-01-07T19:37:05.514Z,8.80
2023-01-07T19:39:50.881Z,7.70
2023-01-07T19:42:36.080Z,6.53
2023-01-07T19:45:21.586Z,7.33
2023-01-07T19:48:07.552Z,7.10
2023-01-07T19:51:05.449Z,8.70
2023-01-07T19:53:51.266Z,9.70
2023-01-07T19:56:37.017Z,9.27
2023-01-07T19:59:22.828Z,9.57
2023-01-07T20:02:08.426Z,8.47
2023-01-07T20:04:54.288Z,8.97
2023-01-07T20:07:40.887Z,7.37
2023-01-07T20:10:27.722Z,6.40
2023-01-07T20:13:13.612Z,6.63
2023-01-07T20:16:10.731Z,6.07
2023-01-07T20:18:56.414Z,5.73
2023-01-07T20:21:42.375Z,6.27
2023-01-07T20:24:29.841Z,5.37
2023-01-07T20:27:15.488Z,5.87
2023-01-07T20:30:00.733Z,5.23
2023-01-07T20:32:48.993Z,6.00
2023-01-07T20:35:36.432Z,6.10
2023-01-07T20:38:22.714Z,5.90
2023-01-07T20:41:10.934Z,5.30
2023-01-07T20:44:01.083Z,5.37
2023-01-07T20:46:46.871Z,5.70
2023-01-07T20:49:32.290Z,5.63
2023-01-07T20:52:18.449Z,5.27
2023-01-07T20:55:04.075Z,5.03
2023-01-07T20:57:49.705Z,5.03
2023-01-07T21:00:35.592Z,5.03
2023-01-07T21:03:20.940Z,4.70
2023-01-07T21:06:09.862Z,5.00
2023-01-07T21:08:55.938Z,5.20
2023-01-07T21:11:43.191Z,4.43
2023-01-07T21:14:28.800Z,5.73
2023-01-07T21:17:15.943Z,4.50
2023-01-07T21:20:01.474Z,4.30
2023-01-07T21:22:48.109Z,4.60
2023-01-07T21:25:33.597Z,4.50
2023-01-07T21:28:18.895Z,4.73
2023-01-07T21:31:08.671Z,3.70
2023-01-07T21:33:56.479Z,4.40
2023-01-07T21:36:42.833Z,3.97
2023-01-07T21:39:28.237Z,4.77
2023-01-07T21:42:13.531Z,4.00
2023-01-07T21:44:58.772Z,4.63
2023-01-07T21:47:44.088Z,4.03
2023-01-07T21:50:29.381Z,4.33
2023-01-07T21:53:14.782Z,4.13
2023-01-07T21:56:06.672Z,4.27
2023-01-07T21:58:52.880Z,4.33
2023-01-07T22:01:38.371Z,4.17
2023-01-07T22:04:25.255Z,4.17
2023-01-07T22:07:16.127Z,4.03
2023-01-07T22:10:02.357Z,3.93
2023-01-07T22:12:47.948Z,4.00
2023-01-07T22:15:33.248Z,3.70
2023-01-07T22:18:18.514Z,4.03
2023-01-07T22:21:03.951Z,4.00
2023-01-07T22:23:49.307Z,3.63
2023-01-07T22:26:36.142Z,3.73
2023-01-07T22:29:21.979Z,3.43
2023-01-07T22:32:07.353Z,3.50
2023-01-07T22:34:52.588Z,3.70
2023-01-07T22:37:37.802Z,3.60
2023-01-07T22:40:23.290Z,3.50
2023-01-07T22:43:14.234Z,3.83
2023-01-07T22:46:23.374Z,3.07
2023-01-07T22:49:08.935Z,3.30
2023-01-07T22:51:54.823Z,3.60
2023-01-07T22:54:40.428Z,3.40
2023-01-07T22:57:26.355Z,3.23
2023-01-07T23:00:37.072Z,3.10
2023-01-07T23:03:23.803Z,3.83
2023-01-07T23:06:11.435Z,3.37
2023-01-07T23:08:57.133Z,3.47
2023-01-07T23:11:48.481Z,3.40
2023-01-07T23:14:33.688Z,3.90
2023-01-07T23:17:18.972Z,3.40
2023-01-07T23:20:04.608Z,3.57
2023-01-07T23:22:50.077Z,3.20
2023-01-07T23:25:36.676Z,3.03
2023-01-07T23:28:22.240Z,3.30
2023-01-07T23:31:07.641Z,2.90
2023-01-07T23:33:53.061Z,3.17
2023-01-07T23:36:38.809Z,3.30
2023-01-07T23:39:24.521Z,3.37
2023-01-07T23:42:09.920Z,3.10
2023-01-07T23:44:55.241Z,3.03
2023-01-07T23:47:40.557Z,3.03
2023-01-07T23:50:25.850Z,2.97
2023-01-07T23:53:11.218Z,3.40
2023-01-07T23:55:57.134Z,3.10
2023-01-07T23:58:42.475Z,3.20
